sensor_id;sensor_type;location;lat;lon;timestamp;P1;durP1;ratioP1;P2;durP2;ratioP2
23155;SDS011;11746;50.876;4.246;2023-11-18T00:01:25;13.52;;;8.27;;
23155;SDS011;11746;50.876;4.246;2023-11-18T00:03:55;15.75;;;8.00;;
23155;SDS011;11746;50.876;4.246;2023-11-18T00:06:23;13.65;;;8.32;;
23155;SDS011;11746;50.876;4.246;2023-11-18T00:08:51;12.63;;;8.27;;
23155;SDS011;11746;50.876;4.246;2023-11-18T00:11:16;15.40;;;8.50;;
23155;SDS011;11746;50.876;4.246;2023-11-18T00:13:44;14.02;;;7.85;;
23155;SDS011;11746;50.876;4.246;2023-11-18T00:16:11;15.05;;;8.35;;
23155;SDS011;11746;50.876;4.246;2023-11-18T00:18:38;19.15;;;8.30;;
23155;SDS011;11746;50.876;4.246;2023-11-18T00:21:04;12.93;;;7.88;;
23155;SDS011;11746;50.876;4.246;2023-11-18T00:23:30;11.40;;;7.47;;
23155;SDS011;11746;50.876;4.246;2023-11-18T00:25:56;11.60;;;8.45;;
23155;SDS011;11746;50.876;4.246;2023-11-18T00:28:22;17.38;;;8.27;;
23155;SDS011;11746;50.876;4.246;2023-11-18T00:30:50;15.70;;;7.80;;
23155;SDS011;11746;50.876;4.246;2023-11-18T00:33:16;12.35;;;8.07;;
23155;SDS011;11746;50.876;4.246;2023-11-18T00:35:44;14.07;;;8.52;;
23155;SDS011;11746;50.876;4.246;2023-11-18T00:38:10;14.52;;;7.93;;
23155;SDS011;11746;50.876;4.246;2023-11-18T00:40:36;13.65;;;8.73;;
23155;SDS011;11746;50.876;4.246;2023-11-18T00:43:07;16.88;;;8.98;;
23155;SDS011;11746;50.876;4.246;2023-11-18T00:45:33;15.32;;;8.68;;
23155;SDS011;11746;50.876;4.246;2023-11-18T00:48:01;17.25;;;8.80;;
23155;SDS011;11746;50.876;4.246;2023-11-18T00:50:26;16.88;;;8.80;;
23155;SDS011;11746;50.876;4.246;2023-11-18T00:52:52;12.48;;;7.88;;
23155;SDS011;11746;50.876;4.246;2023-11-18T00:55:18;14.52;;;8.65;;
23155;SDS011;11746;50.876;4.246;2023-11-18T00:57:44;15.25;;;8.40;;
23155;SDS011;11746;50.876;4.246;2023-11-18T01:00:14;20.73;;;8.93;;
23155;SDS011;11746;50.876;4.246;2023-11-18T01:02:41;20.25;;;9.15;;
23155;SDS011;11746;50.876;4.246;2023-11-18T01:05:08;16.92;;;8.88;;
23155;SDS011;11746;50.876;4.246;2023-11-18T01:07:35;11.65;;;7.25;;
23155;SDS011;11746;50.876;4.246;2023-11-18T01:10:02;14.15;;;8.40;;
23155;SDS011;11746;50.876;4.246;2023-11-18T01:12:28;13.45;;;8.55;;
23155;SDS011;11746;50.876;4.246;2023-11-18T01:14:56;15.75;;;8.05;;
23155;SDS011;11746;50.876;4.246;2023-11-18T01:17:22;13.63;;;8.27;;
23155;SDS011;11746;50.876;4.246;2023-11-18T01:19:48;13.50;;;7.43;;
23155;SDS011;11746;50.876;4.246;2023-11-18T01:22:14;11.90;;;7.60;;
23155;SDS011;11746;50.876;4.246;2023-11-18T01:24:42;17.08;;;8.10;;
23155;SDS011;11746;50.876;4.246;2023-11-18T01:27:08;14.05;;;7.70;;
23155;SDS011;11746;50.876;4.246;2023-11-18T01:29:37;16.40;;;8.20;;
23155;SDS011;11746;50.876;4.246;2023-11-18T01:32:04;13.43;;;7.65;;
23155;SDS011;11746;50.876;4.246;2023-11-18T01:34:34;12.38;;;7.28;;
23155;SDS011;11746;50.876;4.246;2023-11-18T01:37:04;15.70;;;7.57;;
23155;SDS011;11746;50.876;4.246;2023-11-18T01:39:34;10.82;;;7.05;;
23155;SDS011;11746;50.876;4.246;2023-11-18T01:42:00;15.90;;;7.40;;
23155;SDS011;11746;50.876;4.246;2023-11-18T01:44:29;11.02;;;6.95;;
23155;SDS011;11746;50.876;4.246;2023-11-18T01:46:58;14.13;;;7.35;;
23155;SDS011;11746;50.876;4.246;2023-11-18T01:49:28;10.73;;;6.45;;
23155;SDS011;11746;50.876;4.246;2023-11-18T01:51:54;13.32;;;7.38;;
23155;SDS011;11746;50.876;4.246;2023-11-18T01:54:21;13.65;;;7.05;;
23155;SDS011;11746;50.876;4.246;2023-11-18T01:56:50;11.65;;;6.97;;
23155;SDS011;11746;50.876;4.246;2023-11-18T01:59:17;10.98;;;6.78;;
23155;SDS011;11746;50.876;4.246;2023-11-18T02:01:48;11.77;;;6.57;;
23155;SDS011;11746;50.876;4.246;2023-11-18T02:04:19;12.38;;;6.80;;
23155;SDS011;11746;50.876;4.246;2023-11-18T02:06:46;14.20;;;6.85;;
23155;SDS011;11746;50.876;4.246;2023-11-18T02:09:14;12.00;;;6.78;;
23155;SDS011;11746;50.876;4.246;2023-11-18T02:14:29;10.20;;;6.95;;
23155;SDS011;11746;50.876;4.246;2023-11-18T02:16:59;11.80;;;6.18;;
23155;SDS011;11746;50.876;4.246;2023-11-18T02:19:27;13.48;;;7.15;;
23155;SDS011;11746;50.876;4.246;2023-11-18T02:21:55;12.52;;;5.97;;
23155;SDS011;11746;50.876;4.246;2023-11-18T02:24:24;11.35;;;6.10;;
23155;SDS011;11746;50.876;4.246;2023-11-18T02:26:58;9.90;;;6.00;;
23155;SDS011;11746;50.876;4.246;2023-11-18T02:29:27;11.10;;;6.13;;
23155;SDS011;11746;50.876;4.246;2023-11-18T02:32:08;11.32;;;5.70;;
23155;SDS011;11746;50.876;4.246;2023-11-18T02:37:42;9.82;;;5.30;;
23155;SDS011;11746;50.876;4.246;2023-11-18T02:40:33;8.98;;;4.82;;
23155;SDS011;11746;50.876;4.246;2023-11-18T02:43:00;9.23;;;4.30;;
23155;SDS011;11746;50.876;4.246;2023-11-18T02:45:30;12.30;;;5.10;;
23155;SDS011;11746;50.876;4.246;2023-11-18T02:47:59;9.43;;;5.15;;
23155;SDS011;11746;50.876;4.246;2023-11-18T02:50:25;11.70;;;4.47;;
23155;SDS011;11746;50.876;4.246;2023-11-18T02:52:53;11.00;;;4.55;;
23155;SDS011;11746;50.876;4.246;2023-11-18T02:55:22;9.98;;;4.05;;
23155;SDS011;11746;50.876;4.246;2023-11-18T02:57:49;11.82;;;4.40;;
23155;SDS011;11746;50.876;4.246;2023-11-18T03:00:17;8.52;;;4.10;;
23155;SDS011;11746;50.876;4.246;2023-11-18T03:02:46;13.73;;;3.92;;
23155;SDS011;11746;50.876;4.246;2023-11-18T03:05:16;9.10;;;4.20;;
23155;SDS011;11746;50.876;4.246;2023-11-18T03:07:45;9.05;;;4.03;;
23155;SDS011;11746;50.876;4.246;2023-11-18T03:10:14;12.10;;;4.15;;
23155;SDS011;11746;50.876;4.246;2023-11-18T03:12:55;9.85;;;3.75;;
23155;SDS011;11746;50.876;4.246;2023-11-18T03:15:22;9.60;;;4.00;;
23155;SDS011;11746;50.876;4.246;2023-11-18T03:17:48;7.85;;;4.05;;
23155;SDS011;11746;50.876;4.246;2023-11-18T03:20:18;6.68;;;3.78;;
23155;SDS011;11746;50.876;4.246;2023-11-18T03:22:48;9.15;;;3.83;;
23155;SDS011;11746;50.876;4.246;2023-11-18T03:25:16;10.85;;;3.60;;
23155;SDS011;11746;50.876;4.246;2023-11-18T03:27:42;10.27;;;3.80;;
23155;SDS011;11746;50.876;4.246;2023-11-18T03:30:09;8.50;;;3.60;;
23155;SDS011;11746;50.876;4.246;2023-11-18T03:32:38;10.30;;;4.32;;
23155;SDS011;11746;50.876;4.246;2023-11-18T03:35:05;9.00;;;3.55;;
23155;SDS011;11746;50.876;4.246;2023-11-18T03:37:40;8.50;;;3.33;;
23155;SDS011;11746;50.876;4.246;2023-11-18T03:40:10;11.63;;;4.00;;
23155;SDS011;11746;50.876;4.246;2023-11-18T03:42:40;8.55;;;3.17;;
23155;SDS011;11746;50.876;4.246;2023-11-18T03:45:11;9.57;;;3.42;;
23155;SDS011;11746;50.876;4.246;2023-11-18T03:47:36;9.15;;;3.55;;
23155;SDS011;11746;50.876;4.246;2023-11-18T03:50:02;11.82;;;3.50;;
23155;SDS011;11746;50.876;4.246;2023-11-18T03:52:28;8.07;;;2.97;;
23155;SDS011;11746;50.876;4.246;2023-11-18T03:54:54;8.05;;;2.90;;
23155;SDS011;11746;50.876;4.246;2023-11-18T03:57:22;5.97;;;3.05;;
23155;SDS011;11746;50.876;4.246;2023-11-18T03:59:48;9.70;;;2.88;;
23155;SDS011;11746;50.876;4.246;2023-11-18T04:02:14;9.68;;;3.20;;
23155;SDS011;11746;50.876;4.246;2023-11-18T04:04:39;6.95;;;2.78;;
23155;SDS011;11746;50.876;4.246;2023-11-18T04:07:07;7.75;;;2.88;;
23155;SDS011;11746;50.876;4.246;2023-11-18T04:09:37;10.45;;;3.10;;
23155;SDS011;11746;50.876;4.246;2023-11-18T04:12:06;7.85;;;3.25;;
23155;SDS011;11746;50.876;4.246;2023-11-18T04:14:32;8.73;;;2.75;;
23155;SDS011;11746;50.876;4.246;2023-11-18T04:16:58;9.15;;;2.55;;
23155;SDS011;11746;50.876;4.246;2023-11-18T04:19:24;7.68;;;2.55;;
23155;SDS011;11746;50.876;4.246;2023-11-18T04:21:51;9.98;;;2.40;;
23155;SDS011;11746;50.876;4.246;2023-11-18T04:24:21;9.98;;;2.20;;
23155;SDS011;11746;50.876;4.246;2023-11-18T04:26:46;8.70;;;2.38;;
23155;SDS011;11746;50.876;4.246;2023-11-18T04:29:14;6.97;;;2.00;;
23155;SDS011;11746;50.876;4.246;2023-11-18T04:31:40;9.35;;;2.38;;
23155;SDS011;11746;50.876;4.246;2023-11-18T04:34:08;7.32;;;1.98;;
23155;SDS011;11746;50.876;4.246;2023-11-18T04:36:35;6.90;;;2.30;;
23155;SDS011;11746;50.876;4.246;2023-11-18T04:39:01;8.35;;;2.10;;
23155;SDS011;11746;50.876;4.246;2023-11-18T04:41:29;9.20;;;2.65;;
23155;SDS011;11746;50.876;4.246;2023-11-18T04:43:59;9.05;;;2.10;;
23155;SDS011;11746;50.876;4.246;2023-11-18T04:46:26;7.32;;;1.60;;
23155;SDS011;11746;50.876;4.246;2023-11-18T04:48:55;9.25;;;2.60;;
23155;SDS011;11746;50.876;4.246;2023-11-18T04:51:23;9.35;;;1.90;;
23155;SDS011;11746;50.876;4.246;2023-11-18T04:53:49;5.32;;;1.85;;
23155;SDS011;11746;50.876;4.246;2023-11-18T04:56:15;5.05;;;1.83;;
23155;SDS011;11746;50.876;4.246;2023-11-18T04:58:43;9.02;;;2.25;;
23155;SDS011;11746;50.876;4.246;2023-11-18T05:01:11;8.23;;;2.13;;
23155;SDS011;11746;50.876;4.246;2023-11-18T05:03:38;6.43;;;1.92;;
23155;SDS011;11746;50.876;4.246;2023-11-18T05:06:06;8.70;;;1.92;;
23155;SDS011;11746;50.876;4.246;2023-11-18T05:08:34;7.72;;;1.70;;
23155;SDS011;11746;50.876;4.246;2023-11-18T05:11:01;9.15;;;2.50;;
23155;SDS011;11746;50.876;4.246;2023-11-18T05:13:26;8.07;;;1.58;;
23155;SDS011;11746;50.876;4.246;2023-11-18T05:15:52;8.57;;;1.80;;
23155;SDS011;11746;50.876;4.246;2023-11-18T05:18:19;7.85;;;1.70;;
23155;SDS011;11746;50.876;4.246;2023-11-18T05:20:48;4.80;;;2.08;;
23155;SDS011;11746;50.876;4.246;2023-11-18T05:23:15;4.72;;;1.42;;
23155;SDS011;11746;50.876;4.246;2023-11-18T05:25:41;8.00;;;2.35;;
23155;SDS011;11746;50.876;4.246;2023-11-18T05:28:12;8.65;;;1.85;;
23155;SDS011;11746;50.876;4.246;2023-11-18T05:30:41;5.65;;;1.63;;
23155;SDS011;11746;50.876;4.246;2023-11-18T05:33:09;10.73;;;1.45;;
23155;SDS011;11746;50.876;4.246;2023-11-18T05:35:39;9.95;;;1.35;;
23155;SDS011;11746;50.876;4.246;2023-11-18T05:38:13;7.80;;;1.90;;
23155;SDS011;11746;50.876;4.246;2023-11-18T05:40:48;10.02;;;1.70;;
23155;SDS011;11746;50.876;4.246;2023-11-18T05:43:26;8.15;;;1.30;;
23155;SDS011;11746;50.876;4.246;2023-11-18T05:46:04;5.90;;;1.40;;
23155;SDS011;11746;50.876;4.246;2023-11-18T05:48:50;7.47;;;1.40;;
23155;SDS011;11746;50.876;4.246;2023-11-18T05:51:21;7.85;;;1.63;;
23155;SDS011;11746;50.876;4.246;2023-11-18T05:53:47;4.57;;;1.17;;
23155;SDS011;11746;50.876;4.246;2023-11-18T05:56:18;8.30;;;1.48;;
23155;SDS011;11746;50.876;4.246;2023-11-18T05:58:47;4.15;;;1.30;;
23155;SDS011;11746;50.876;4.246;2023-11-18T06:01:13;7.13;;;1.48;;
23155;SDS011;11746;50.876;4.246;2023-11-18T06:03:41;6.32;;;1.60;;
23155;SDS011;11746;50.876;4.246;2023-11-18T06:06:08;6.97;;;1.38;;
23155;SDS011;11746;50.876;4.246;2023-11-18T06:08:35;8.52;;;1.58;;
23155;SDS011;11746;50.876;4.246;2023-11-18T06:11:11;4.07;;;0.95;;
23155;SDS011;11746;50.876;4.246;2023-11-18T06:16:09;6.70;;;1.40;;
23155;SDS011;11746;50.876;4.246;2023-11-18T06:18:44;7.40;;;1.55;;
23155;SDS011;11746;50.876;4.246;2023-11-18T06:21:13;3.88;;;1.30;;
23155;SDS011;11746;50.876;4.246;2023-11-18T06:23:43;6.90;;;1.23;;
23155;SDS011;11746;50.876;4.246;2023-11-18T06:26:13;7.75;;;1.63;;
23155;SDS011;11746;50.876;4.246;2023-11-18T06:28:42;5.07;;;1.33;;
23155;SDS011;11746;50.876;4.246;2023-11-18T06:31:09;7.72;;;1.45;;
23155;SDS011;11746;50.876;4.246;2023-11-18T06:33:37;10.65;;;1.52;;
23155;SDS011;11746;50.876;4.246;2023-11-18T06:36:18;5.25;;;1.45;;
23155;SDS011;11746;50.876;4.246;2023-11-18T06:38:46;8.38;;;1.55;;
23155;SDS011;11746;50.876;4.246;2023-11-18T06:41:14;6.05;;;1.55;;
23155;SDS011;11746;50.876;4.246;2023-11-18T06:43:44;10.52;;;1.95;;
23155;SDS011;11746;50.876;4.246;2023-11-18T06:46:20;6.00;;;1.48;;
23155;SDS011;11746;50.876;4.246;2023-11-18T06:48:53;7.40;;;1.90;;
23155;SDS011;11746;50.876;4.246;2023-11-18T06:51:23;14.60;;;2.03;;
23155;SDS011;11746;50.876;4.246;2023-11-18T06:53:55;6.78;;;1.63;;
23155;SDS011;11746;50.876;4.246;2023-11-18T06:56:22;9.15;;;1.65;;
23155;SDS011;11746;50.876;4.246;2023-11-18T06:58:51;10.48;;;1.67;;
23155;SDS011;11746;50.876;4.246;2023-11-18T07:01:21;8.40;;;1.45;;
23155;SDS011;11746;50.876;4.246;2023-11-18T07:03:47;9.65;;;1.95;;
23155;SDS011;11746;50.876;4.246;2023-11-18T07:06:19;6.93;;;1.63;;
23155;SDS011;11746;50.876;4.246;2023-11-18T07:08:50;3.97;;;1.50;;
23155;SDS011;11746;50.876;4.246;2023-11-18T07:11:16;6.72;;;1.60;;
23155;SDS011;11746;50.876;4.246;2023-11-18T07:13:43;5.60;;;1.55;;
23155;SDS011;11746;50.876;4.246;2023-11-18T07:16:09;7.00;;;1.73;;
23155;SDS011;11746;50.876;4.246;2023-11-18T07:18:35;5.25;;;1.70;;
23155;SDS011;11746;50.876;4.246;2023-11-18T07:21:04;7.55;;;1.70;;
23155;SDS011;11746;50.876;4.246;2023-11-18T07:23:33;6.93;;;1.90;;
23155;SDS011;11746;50.876;4.246;2023-11-18T07:25:59;7.63;;;1.58;;
23155;SDS011;11746;50.876;4.246;2023-11-18T07:28:25;5.78;;;1.65;;
23155;SDS011;11746;50.876;4.246;2023-11-18T07:30:52;5.32;;;1.40;;
23155;SDS011;11746;50.876;4.246;2023-11-18T07:33:18;9.30;;;2.20;;
23155;SDS011;11746;50.876;4.246;2023-11-18T07:35:44;7.63;;;1.83;;
23155;SDS011;11746;50.876;4.246;2023-11-18T07:38:17;7.57;;;2.40;;
23155;SDS011;11746;50.876;4.246;2023-11-18T07:40:45;8.40;;;2.28;;
23155;SDS011;11746;50.876;4.246;2023-11-18T07:43:11;10.63;;;2.40;;
23155;SDS011;11746;50.876;4.246;2023-11-18T07:45:37;9.25;;;2.53;;
23155;SDS011;11746;50.876;4.246;2023-11-18T07:48:05;9.00;;;2.80;;
23155;SDS011;11746;50.876;4.246;2023-11-18T07:50:33;7.45;;;2.30;;
23155;SDS011;11746;50.876;4.246;2023-11-18T07:53:05;9.80;;;2.58;;
23155;SDS011;11746;50.876;4.246;2023-11-18T07:55:34;9.05;;;2.28;;
23155;SDS011;11746;50.876;4.246;2023-11-18T07:58:04;7.63;;;2.33;;
23155;SDS011;11746;50.876;4.246;2023-11-18T08:00:31;6.45;;;2.53;;
23155;SDS011;11746;50.876;4.246;2023-11-18T08:02:58;5.35;;;2.17;;
23155;SDS011;11746;50.876;4.246;2023-11-18T08:05:26;10.75;;;2.88;;
23155;SDS011;11746;50.876;4.246;2023-11-18T08:07:56;6.28;;;2.58;;
23155;SDS011;11746;50.876;4.246;2023-11-18T08:10:22;9.40;;;2.58;;
23155;SDS011;11746;50.876;4.246;2023-11-18T08:12:49;7.05;;;3.10;;
23155;SDS011;11746;50.876;4.246;2023-11-18T08:15:19;9.68;;;3.80;;
23155;SDS011;11746;50.876;4.246;2023-11-18T08:17:45;8.38;;;3.13;;
23155;SDS011;11746;50.876;4.246;2023-11-18T08:20:10;11.43;;;3.60;;
23155;SDS011;11746;50.876;4.246;2023-11-18T08:22:42;8.52;;;3.22;;
23155;SDS011;11746;50.876;4.246;2023-11-18T08:25:11;8.45;;;3.50;;
23155;SDS011;11746;50.876;4.246;2023-11-18T08:27:38;8.60;;;3.63;;
23155;SDS011;11746;50.876;4.246;2023-11-18T08:30:05;6.82;;;3.38;;
23155;SDS011;11746;50.876;4.246;2023-11-18T08:32:36;8.80;;;3.70;;
23155;SDS011;11746;50.876;4.246;2023-11-18T08:35:06;9.68;;;3.92;;
23155;SDS011;11746;50.876;4.246;2023-11-18T08:37:33;7.18;;;3.75;;
23155;SDS011;11746;50.876;4.246;2023-11-18T08:40:02;9.63;;;3.65;;
23155;SDS011;11746;50.876;4.246;2023-11-18T08:42:40;11.23;;;4.15;;
23155;SDS011;11746;50.876;4.246;2023-11-18T08:45:19;8.80;;;4.32;;
23155;SDS011;11746;50.876;4.246;2023-11-18T08:47:46;8.43;;;4.00;;
23155;SDS011;11746;50.876;4.246;2023-11-18T08:50:13;8.77;;;4.38;;
23155;SDS011;11746;50.876;4.246;2023-11-18T08:52:41;10.75;;;4.13;;
23155;SDS011;11746;50.876;4.246;2023-11-18T08:55:09;9.50;;;4.47;;
23155;SDS011;11746;50.876;4.246;2023-11-18T08:57:46;8.45;;;4.15;;
23155;SDS011;11746;50.876;4.246;2023-11-18T09:00:28;10.32;;;4.43;;
23155;SDS011;11746;50.876;4.246;2023-11-18T09:03:13;9.20;;;4.38;;
23155;SDS011;11746;50.876;4.246;2023-11-18T09:05:50;9.10;;;4.68;;
23155;SDS011;11746;50.876;4.246;2023-11-18T09:10:52;10.82;;;4.30;;
23155;SDS011;11746;50.876;4.246;2023-11-18T09:13:25;7.53;;;3.78;;
23155;SDS011;11746;50.876;4.246;2023-11-18T09:15:58;9.02;;;4.40;;
23155;SDS011;11746;50.876;4.246;2023-11-18T09:18:27;7.60;;;4.28;;
23155;SDS011;11746;50.876;4.246;2023-11-18T09:20:53;9.80;;;4.97;;
23155;SDS011;11746;50.876;4.246;2023-11-18T09:23:26;7.05;;;3.47;;
23155;SDS011;11746;50.876;4.246;2023-11-18T09:25:52;9.07;;;3.88;;
23155;SDS011;11746;50.876;4.246;2023-11-18T09:28:21;11.07;;;4.47;;
23155;SDS011;11746;50.876;4.246;2023-11-18T09:30:53;9.57;;;4.25;;
23155;SDS011;11746;50.876;4.246;2023-11-18T09:33:22;7.07;;;4.03;;
23155;SDS011;11746;50.876;4.246;2023-11-18T09:36:02;7.82;;;4.03;;
23155;SDS011;11746;50.876;4.246;2023-11-18T09:38:31;11.63;;;4.60;;
23155;SDS011;11746;50.876;4.246;2023-11-18T09:41:00;9.80;;;4.45;;
23155;SDS011;11746;50.876;4.246;2023-11-18T09:43:28;6.35;;;3.60;;
23155;SDS011;11746;50.876;4.246;2023-11-18T09:45:58;8.60;;;3.80;;
23155;SDS011;11746;50.876;4.246;2023-11-18T09:48:37;8.65;;;4.43;;
23155;SDS011;11746;50.876;4.246;2023-11-18T09:51:07;7.10;;;4.30;;
23155;SDS011;11746;50.876;4.246;2023-11-18T09:53:37;7.60;;;4.32;;
23155;SDS011;11746;50.876;4.246;2023-11-18T09:56:10;7.68;;;4.22;;
23155;SDS011;11746;50.876;4.246;2023-11-18T09:58:45;6.43;;;4.07;;
23155;SDS011;11746;50.876;4.246;2023-11-18T10:01:22;10.23;;;4.32;;
23155;SDS011;11746;50.876;4.246;2023-11-18T10:03:53;8.23;;;4.60;;
23155;SDS011;11746;50.876;4.246;2023-11-18T10:06:23;9.95;;;5.00;;
23155;SDS011;11746;50.876;4.246;2023-11-18T10:08:51;18.30;;;5.53;;
23155;SDS011;11746;50.876;4.246;2023-11-18T10:11:18;10.82;;;5.57;;
23155;SDS011;11746;50.876;4.246;2023-11-18T10:13:47;9.02;;;5.35;;
23155;SDS011;11746;50.876;4.246;2023-11-18T10:16:14;10.18;;;5.18;;
23155;SDS011;11746;50.876;4.246;2023-11-18T10:18:39;11.88;;;5.10;;
23155;SDS011;11746;50.876;4.246;2023-11-18T10:21:14;10.98;;;5.15;;
23155;SDS011;11746;50.876;4.246;2023-11-18T10:23:58;8.98;;;5.78;;
23155;SDS011;11746;50.876;4.246;2023-11-18T10:26:27;10.98;;;5.65;;
23155;SDS011;11746;50.876;4.246;2023-11-18T10:28:54;8.85;;;5.15;;
23155;SDS011;11746;50.876;4.246;2023-11-18T10:31:27;9.82;;;5.70;;
23155;SDS011;11746;50.876;4.246;2023-11-18T10:33:53;9.27;;;4.95;;
23155;SDS011;11746;50.876;4.246;2023-11-18T10:36:20;8.23;;;4.82;;
23155;SDS011;11746;50.876;4.246;2023-11-18T10:38:50;19.85;;;12.32;;
23155;SDS011;11746;50.876;4.246;2023-11-18T10:41:23;8.45;;;4.50;;
23155;SDS011;11746;50.876;4.246;2023-11-18T10:43:48;9.50;;;4.63;;
23155;SDS011;11746;50.876;4.246;2023-11-18T10:46:19;10.38;;;5.30;;
23155;SDS011;11746;50.876;4.246;2023-11-18T10:48:48;6.38;;;4.68;;
23155;SDS011;11746;50.876;4.246;2023-11-18T10:51:14;14.73;;;10.63;;
23155;SDS011;11746;50.876;4.246;2023-11-18T10:53:49;12.07;;;7.15;;
23155;SDS011;11746;50.876;4.246;2023-11-18T10:56:23;6.47;;;3.35;;
23155;SDS011;11746;50.876;4.246;2023-11-18T10:58:58;9.15;;;3.72;;
23155;SDS011;11746;50.876;4.246;2023-11-18T11:01:33;5.32;;;3.50;;
23155;SDS011;11746;50.876;4.246;2023-11-18T11:04:04;6.50;;;2.45;;
23155;SDS011;11746;50.876;4.246;2023-11-18T11:06:31;5.43;;;2.53;;
23155;SDS011;11746;50.876;4.246;2023-11-18T11:08:58;4.28;;;2.50;;
23155;SDS011;11746;50.876;4.246;2023-11-18T11:11:28;5.18;;;2.55;;
23155;SDS011;11746;50.876;4.246;2023-11-18T11:14:03;3.20;;;1.98;;
23155;SDS011;11746;50.876;4.246;2023-11-18T11:16:42;4.22;;;2.38;;
23155;SDS011;11746;50.876;4.246;2023-11-18T11:19:15;4.15;;;2.03;;
23155;SDS011;11746;50.876;4.246;2023-11-18T11:22:07;4.65;;;1.80;;
23155;SDS011;11746;50.876;4.246;2023-11-18T11:27:14;3.47;;;1.60;;
23155;SDS011;11746;50.876;4.246;2023-11-18T11:30:01;3.70;;;2.03;;
23155;SDS011;11746;50.876;4.246;2023-11-18T11:32:39;4.22;;;1.67;;
23155;SDS011;11746;50.876;4.246;2023-11-18T11:35:16;8.15;;;3.33;;
23155;SDS011;11746;50.876;4.246;2023-11-18T11:37:48;4.30;;;2.30;;
23155;SDS011;11746;50.876;4.246;2023-11-18T11:40:15;4.72;;;2.20;;
23155;SDS011;11746;50.876;4.246;2023-11-18T11:42:47;4.55;;;2.35;;
23155;SDS011;11746;50.876;4.246;2023-11-18T11:45:21;3.10;;;1.70;;
23155;SDS011;11746;50.876;4.246;2023-11-18T11:47:54;1.92;;;1.20;;
23155;SDS011;11746;50.876;4.246;2023-11-18T11:56:48;2.10;;;1.20;;
23155;SDS011;11746;50.876;4.246;2023-11-18T12:02:25;4.63;;;2.28;;
23155;SDS011;11746;50.876;4.246;2023-11-18T12:04:54;3.00;;;1.23;;
23155;SDS011;11746;50.876;4.246;2023-11-18T12:07:24;2.28;;;1.42;;
23155;SDS011;11746;50.876;4.246;2023-11-18T12:09:58;4.55;;;2.75;;
23155;SDS011;11746;50.876;4.246;2023-11-18T12:12:31;2.95;;;1.88;;
23155;SDS011;11746;50.876;4.246;2023-11-18T12:14:59;3.45;;;0.98;;
23155;SDS011;11746;50.876;4.246;2023-11-18T12:17:31;0.98;;;0.77;;
23155;SDS011;11746;50.876;4.246;2023-11-18T12:20:40;2.03;;;1.15;;
23155;SDS011;11746;50.876;4.246;2023-11-18T12:23:12;1.70;;;1.25;;
23155;SDS011;11746;50.876;4.246;2023-11-18T12:25:45;2.83;;;1.38;;
23155;SDS011;11746;50.876;4.246;2023-11-18T12:28:20;1.05;;;0.90;;
23155;SDS011;11746;50.876;4.246;2023-11-18T12:30:52;3.10;;;1.25;;
23155;SDS011;11746;50.876;4.246;2023-11-18T12:33:26;3.55;;;2.15;;
23155;SDS011;11746;50.876;4.246;2023-11-18T12:42:07;1.63;;;1.13;;
23155;SDS011;11746;50.876;4.246;2023-11-18T12:47:59;3.45;;;1.70;;
23155;SDS011;11746;50.876;4.246;2023-11-18T12:50:36;3.13;;;1.70;;
23155;SDS011;11746;50.876;4.246;2023-11-18T12:53:04;2.90;;;1.67;;
23155;SDS011;11746;50.876;4.246;2023-11-18T12:55:31;1.60;;;1.20;;
23155;SDS011;11746;50.876;4.246;2023-11-18T12:58:00;0.80;;;0.73;;
23155;SDS011;11746;50.876;4.246;2023-11-18T13:00:30;1.10;;;0.80;;
23155;SDS011;11746;50.876;4.246;2023-11-18T13:03:03;2.15;;;1.38;;
23155;SDS011;11746;50.876;4.246;2023-11-18T13:05:35;0.60;;;0.60;;
23155;SDS011;11746;50.876;4.246;2023-11-18T13:08:02;2.00;;;1.60;;
23155;SDS011;11746;50.876;4.246;2023-11-18T13:10:30;1.35;;;0.52;;
23155;SDS011;11746;50.876;4.246;2023-11-18T13:12:56;1.58;;;1.38;;
23155;SDS011;11746;50.876;4.246;2023-11-18T13:15:23;1.45;;;1.05;;
23155;SDS011;11746;50.876;4.246;2023-11-18T13:17:59;1.90;;;1.13;;
23155;SDS011;11746;50.876;4.246;2023-11-18T13:20:31;2.50;;;1.73;;
23155;SDS011;11746;50.876;4.246;2023-11-18T13:23:00;3.58;;;2.60;;
23155;SDS011;11746;50.876;4.246;2023-11-18T13:25:34;4.35;;;2.03;;
23155;SDS011;11746;50.876;4.246;2023-11-18T13:28:01;20.20;;;13.32;;
23155;SDS011;11746;50.876;4.246;2023-11-18T13:30:30;2.50;;;1.60;;
23155;SDS011;11746;50.876;4.246;2023-11-18T13:32:56;0.80;;;0.70;;
23155;SDS011;11746;50.876;4.246;2023-11-18T13:35:22;0.88;;;0.70;;
23155;SDS011;11746;50.876;4.246;2023-11-18T13:37:49;0.50;;;0.50;;
23155;SDS011;11746;50.876;4.246;2023-11-18T13:40:21;0.70;;;0.50;;
23155;SDS011;11746;50.876;4.246;2023-11-18T13:42:53;1.17;;;0.60;;
23155;SDS011;11746;50.876;4.246;2023-11-18T13:45:33;1.88;;;0.60;;
23155;SDS011;11746;50.876;4.246;2023-11-18T13:48:01;1.67;;;0.63;;
23155;SDS011;11746;50.876;4.246;2023-11-18T13:50:27;0.98;;;0.70;;
23155;SDS011;11746;50.876;4.246;2023-11-18T13:52:53;1.30;;;1.20;;
23155;SDS011;11746;50.876;4.246;2023-11-18T13:55:21;1.02;;;0.70;;
23155;SDS011;11746;50.876;4.246;2023-11-18T13:57:56;1.13;;;0.77;;
23155;SDS011;11746;50.876;4.246;2023-11-18T14:00:25;0.70;;;0.63;;
23155;SDS011;11746;50.876;4.246;2023-11-18T14:02:55;1.70;;;0.70;;
23155;SDS011;11746;50.876;4.246;2023-11-18T14:05:22;1.42;;;0.90;;
23155;SDS011;11746;50.876;4.246;2023-11-18T14:07:49;1.05;;;0.77;;
23155;SDS011;11746;50.876;4.246;2023-11-18T14:10:24;3.33;;;2.58;;
23155;SDS011;11746;50.876;4.246;2023-11-18T14:13:06;1.98;;;1.50;;
23155;SDS011;11746;50.876;4.246;2023-11-18T14:15:37;2.35;;;1.92;;
23155;SDS011;11746;50.876;4.246;2023-11-18T14:18:07;3.20;;;2.08;;
23155;SDS011;11746;50.876;4.246;2023-11-18T14:20:34;0.88;;;0.80;;
23155;SDS011;11746;50.876;4.246;2023-11-18T14:23:02;2.10;;;1.38;;
23155;SDS011;11746;50.876;4.246;2023-11-18T14:25:31;3.05;;;0.90;;
23155;SDS011;11746;50.876;4.246;2023-11-18T14:27:57;1.95;;;1.05;;
23155;SDS011;11746;50.876;4.246;2023-11-18T14:30:23;2.92;;;2.65;;
23155;SDS011;11746;50.876;4.246;2023-11-18T14:32:52;2.33;;;0.85;;
23155;SDS011;11746;50.876;4.246;2023-11-18T14:35:20;1.88;;;0.88;;
23155;SDS011;11746;50.876;4.246;2023-11-18T14:37:47;0.73;;;0.57;;
23155;SDS011;11746;50.876;4.246;2023-11-18T14:40:13;1.15;;;0.77;;
23155;SDS011;11746;50.876;4.246;2023-11-18T14:42:43;0.95;;;0.70;;
23155;SDS011;11746;50.876;4.246;2023-11-18T14:45:11;0.85;;;0.63;;
23155;SDS011;11746;50.876;4.246;2023-11-18T14:47:38;0.50;;;0.50;;
23155;SDS011;11746;50.876;4.246;2023-11-18T14:50:05;0.57;;;0.40;;
23155;SDS011;11746;50.876;4.246;2023-11-18T14:52:40;2.35;;;0.60;;
23155;SDS011;11746;50.876;4.246;2023-11-18T14:55:06;2.33;;;0.93;;
23155;SDS011;11746;50.876;4.246;2023-11-18T14:57:37;0.88;;;0.60;;
23155;SDS011;11746;50.876;4.246;2023-11-18T15:00:09;3.13;;;0.80;;
23155;SDS011;11746;50.876;4.246;2023-11-18T15:02:45;2.17;;;1.20;;
23155;SDS011;11746;50.876;4.246;2023-11-18T15:05:14;1.55;;;1.00;;
23155;SDS011;11746;50.876;4.246;2023-11-18T15:07:46;1.50;;;1.00;;
23155;SDS011;11746;50.876;4.246;2023-11-18T15:10:21;1.85;;;0.90;;
23155;SDS011;11746;50.876;4.246;2023-11-18T15:12:51;1.63;;;0.90;;
23155;SDS011;11746;50.876;4.246;2023-11-18T15:15:23;1.20;;;0.88;;
23155;SDS011;11746;50.876;4.246;2023-11-18T15:17:56;2.05;;;1.00;;
23155;SDS011;11746;50.876;4.246;2023-11-18T15:20:33;2.03;;;1.13;;
23155;SDS011;11746;50.876;4.246;2023-11-18T15:23:00;3.42;;;1.20;;
23155;SDS011;11746;50.876;4.246;2023-11-18T15:25:27;2.65;;;1.60;;
23155;SDS011;11746;50.876;4.246;2023-11-18T15:27:52;4.00;;;1.70;;
23155;SDS011;11746;50.876;4.246;2023-11-18T15:30:22;4.13;;;1.80;;